sensor_id;sensor_type;location;lat;lon;timestamp;P1;durP1;ratioP1;P2;durP2;ratioP2
12356;SDS011;6243;51.244;6.774;2023-04-15T00:00:00;4.23;;;3.50;;
12356;SDS011;6243;51.244;6.774;2023-04-15T00:02:26;7.03;;;4.27;;
12356;SDS011;6243;51.244;6.774;2023-04-15T00:04:52;7.00;;;4.50;;
12356;SDS011;6243;51.244;6.774;2023-04-15T00:07:17;7.47;;;4.13;;
12356;SDS011;6243;51.244;6.774;2023-04-15T00:09:44;4.30;;;3.57;;
12356;SDS011;6243;51.244;6.774;2023-04-15T00:12:09;6.00;;;3.70;;
12356;SDS011;6243;51.244;6.774;2023-04-15T00:14:35;4.60;;;3.53;;
12356;SDS011;6243;51.244;6.774;2023-04-15T00:17:01;5.30;;;3.83;;
12356;SDS011;6243;51.244;6.774;2023-04-15T00:19:26;3.80;;;3.40;;
12356;SDS011;6243;51.244;6.774;2023-04-15T00:21:52;4.53;;;3.67;;
12356;SDS011;6243;51.244;6.774;2023-04-15T00:24:17;4.90;;;3.90;;
12356;SDS011;6243;51.244;6.774;2023-04-15T00:26:44;5.57;;;4.30;;
12356;SDS011;6243;51.244;6.774;2023-04-15T00:29:09;4.07;;;3.60;;
12356;SDS011;6243;51.244;6.774;2023-04-15T00:31:35;4.43;;;3.83;;
12356;SDS011;6243;51.244;6.774;2023-04-15T00:34:00;6.10;;;4.23;;
12356;SDS011;6243;51.244;6.774;2023-04-15T00:36:26;6.63;;;4.53;;
12356;SDS011;6243;51.244;6.774;2023-04-15T00:38:51;7.67;;;4.73;;
12356;SDS011;6243;51.244;6.774;2023-04-15T00:41:17;5.10;;;4.03;;
12356;SDS011;6243;51.244;6.774;2023-04-15T00:43:44;5.70;;;4.23;;
12356;SDS011;6243;51.244;6.774;2023-04-15T00:46:10;7.60;;;3.80;;
12356;SDS011;6243;51.244;6.774;2023-04-15T00:48:38;4.83;;;3.83;;
12356;SDS011;6243;51.244;6.774;2023-04-15T00:51:05;4.73;;;4.20;;
12356;SDS011;6243;51.244;6.774;2023-04-15T00:53:30;5.33;;;4.30;;
12356;SDS011;6243;51.244;6.774;2023-04-15T00:55:56;6.10;;;3.77;;
12356;SDS011;6243;51.244;6.774;2023-04-15T00:58:21;5.20;;;4.10;;
12356;SDS011;6243;51.244;6.774;2023-04-15T01:00:49;6.87;;;4.87;;
12356;SDS011;6243;51.244;6.774;2023-04-15T01:03:16;4.37;;;3.97;;
12356;SDS011;6243;51.244;6.774;2023-04-15T01:05:41;6.63;;;4.17;;
12356;SDS011;6243;51.244;6.774;2023-04-15T01:08:07;5.40;;;4.53;;
12356;SDS011;6243;51.244;6.774;2023-04-15T01:10:32;6.30;;;4.60;;
12356;SDS011;6243;51.244;6.774;2023-04-15T01:12:58;6.40;;;4.80;;
12356;SDS011;6243;51.244;6.774;2023-04-15T01:15:23;4.77;;;3.80;;
12356;SDS011;6243;51.244;6.774;2023-04-15T01:17:50;6.37;;;4.40;;
12356;SDS011;6243;51.244;6.774;2023-04-15T01:20:16;5.47;;;4.50;;
12356;SDS011;6243;51.244;6.774;2023-04-15T01:22:42;6.37;;;4.17;;
12356;SDS011;6243;51.244;6.774;2023-04-15T01:25:09;5.10;;;3.90;;
12356;SDS011;6243;51.244;6.774;2023-04-15T01:27:37;5.30;;;3.90;;
12356;SDS011;6243;51.244;6.774;2023-04-15T01:30:04;5.57;;;4.13;;
12356;SDS011;6243;51.244;6.774;2023-04-15T01:32:30;4.70;;;4.10;;
12356;SDS011;6243;51.244;6.774;2023-04-15T01:34:56;10.07;;;4.27;;
12356;SDS011;6243;51.244;6.774;2023-04-15T01:37:21;6.63;;;3.97;;
12356;SDS011;6243;51.244;6.774;2023-04-15T01:39:47;4.67;;;4.17;;
12356;SDS011;6243;51.244;6.774;2023-04-15T01:42:12;7.13;;;4.30;;
12356;SDS011;6243;51.244;6.774;2023-04-15T01:44:39;5.57;;;4.50;;
12356;SDS011;6243;51.244;6.774;2023-04-15T01:47:05;6.60;;;4.40;;
12356;SDS011;6243;51.244;6.774;2023-04-15T01:49:30;5.93;;;3.93;;
12356;SDS011;6243;51.244;6.774;2023-04-15T01:51:56;6.37;;;4.83;;
12356;SDS011;6243;51.244;6.774;2023-04-15T01:54:21;5.17;;;4.60;;
12356;SDS011;6243;51.244;6.774;2023-04-15T01:56:47;6.97;;;4.80;;
12356;SDS011;6243;51.244;6.774;2023-04-15T01:59:12;4.97;;;4.47;;
12356;SDS011;6243;51.244;6.774;2023-04-15T02:01:39;6.40;;;4.90;;
12356;SDS011;6243;51.244;6.774;2023-04-15T02:04:05;9.43;;;5.40;;
12356;SDS011;6243;51.244;6.774;2023-04-15T02:06:30;4.97;;;4.30;;
12356;SDS011;6243;51.244;6.774;2023-04-15T02:08:56;6.03;;;4.13;;
12356;SDS011;6243;51.244;6.774;2023-04-15T02:11:21;6.00;;;4.87;;
12356;SDS011;6243;51.244;6.774;2023-04-15T02:13:47;5.30;;;4.73;;
12356;SDS011;6243;51.244;6.774;2023-04-15T02:16:15;4.93;;;4.50;;
12356;SDS011;6243;51.244;6.774;2023-04-15T02:18:42;7.23;;;4.90;;
12356;SDS011;6243;51.244;6.774;2023-04-15T02:21:08;6.33;;;5.37;;
12356;SDS011;6243;51.244;6.774;2023-04-15T02:23:33;5.93;;;4.70;;
12356;SDS011;6243;51.244;6.774;2023-04-15T02:25:59;6.13;;;4.30;;
12356;SDS011;6243;51.244;6.774;2023-04-15T02:28:24;6.33;;;4.50;;
12356;SDS011;6243;51.244;6.774;2023-04-15T02:30:50;5.70;;;4.83;;
12356;SDS011;6243;51.244;6.774;2023-04-15T02:33:15;5.87;;;4.93;;
12356;SDS011;6243;51.244;6.774;2023-04-15T02:35:42;5.47;;;4.90;;
12356;SDS011;6243;51.244;6.774;2023-04-15T02:38:08;5.40;;;4.90;;
12356;SDS011;6243;51.244;6.774;2023-04-15T02:40:33;6.27;;;4.80;;
12356;SDS011;6243;51.244;6.774;2023-04-15T02:42:58;5.93;;;4.90;;
12356;SDS011;6243;51.244;6.774;2023-04-15T02:45:24;5.80;;;4.87;;
12356;SDS011;6243;51.244;6.774;2023-04-15T02:47:49;6.93;;;4.40;;
12356;SDS011;6243;51.244;6.774;2023-04-15T02:50:15;6.30;;;4.50;;
12356;SDS011;6243;51.244;6.774;2023-04-15T02:52:42;8.77;;;5.03;;
12356;SDS011;6243;51.244;6.774;2023-04-15T02:55:07;7.67;;;4.93;;
12356;SDS011;6243;51.244;6.774;2023-04-15T02:57:33;8.80;;;5.47;;
12356;SDS011;6243;51.244;6.774;2023-04-15T02:59:59;6.77;;;4.97;;
12356;SDS011;6243;51.244;6.774;2023-04-15T03:02:24;8.57;;;5.33;;
12356;SDS011;6243;51.244;6.774;2023-04-15T03:04:50;7.07;;;5.17;;
12356;SDS011;6243;51.244;6.774;2023-04-15T03:07:16;7.40;;;5.00;;
12356;SDS011;6243;51.244;6.774;2023-04-15T03:09:43;6.03;;;4.97;;
12356;SDS011;6243;51.244;6.774;2023-04-15T03:12:09;8.10;;;5.57;;
12356;SDS011;6243;51.244;6.774;2023-04-15T03:14:34;6.53;;;5.80;;
12356;SDS011;6243;51.244;6.774;2023-04-15T03:17:00;8.23;;;5.17;;
12356;SDS011;6243;51.244;6.774;2023-04-15T03:19:25;6.20;;;5.30;;
12356;SDS011;6243;51.244;6.774;2023-04-15T03:21:51;6.47;;;5.20;;
12356;SDS011;6243;51.244;6.774;2023-04-15T03:24:16;7.33;;;5.90;;
12356;SDS011;6243;51.244;6.774;2023-04-15T03:26:43;6.77;;;5.53;;
12356;SDS011;6243;51.244;6.774;2023-04-15T03:29:09;6.60;;;5.77;;
12356;SDS011;6243;51.244;6.774;2023-04-15T03:31:34;6.33;;;5.10;;
12356;SDS011;6243;51.244;6.774;2023-04-15T03:33:59;9.07;;;5.57;;
12356;SDS011;6243;51.244;6.774;2023-04-15T03:36:25;5.77;;;5.17;;
12356;SDS011;6243;51.244;6.774;2023-04-15T03:38:51;6.07;;;4.73;;
12356;SDS011;6243;51.244;6.774;2023-04-15T03:41:16;8.57;;;4.80;;
12356;SDS011;6243;51.244;6.774;2023-04-15T03:43:43;6.43;;;5.43;;
12356;SDS011;6243;51.244;6.774;2023-04-15T03:46:09;7.83;;;5.13;;
12356;SDS011;6243;51.244;6.774;2023-04-15T03:48:34;6.20;;;5.60;;
12356;SDS011;6243;51.244;6.774;2023-04-15T03:51:00;6.87;;;5.97;;
12356;SDS011;6243;51.244;6.774;2023-04-15T03:53:25;8.30;;;6.20;;
12356;SDS011;6243;51.244;6.774;2023-04-15T03:55:51;6.40;;;5.33;;
12356;SDS011;6243;51.244;6.774;2023-04-15T03:58:16;6.77;;;5.10;;
12356;SDS011;6243;51.244;6.774;2023-04-15T04:00:43;7.10;;;5.73;;
12356;SDS011;6243;51.244;6.774;2023-04-15T04:03:08;9.93;;;5.93;;
12356;SDS011;6243;51.244;6.774;2023-04-15T04:05:34;6.83;;;5.93;;
12356;SDS011;6243;51.244;6.774;2023-04-15T04:07:59;6.30;;;5.70;;
12356;SDS011;6243;51.244;6.774;2023-04-15T04:10:25;7.17;;;5.53;;
12356;SDS011;6243;51.244;6.774;2023-04-15T04:12:51;5.93;;;5.20;;
12356;SDS011;6243;51.244;6.774;2023-04-15T04:15:16;7.77;;;5.57;;
12356;SDS011;6243;51.244;6.774;2023-04-15T04:17:43;7.67;;;6.03;;
12356;SDS011;6243;51.244;6.774;2023-04-15T04:20:09;7.67;;;6.23;;
12356;SDS011;6243;51.244;6.774;2023-04-15T04:22:36;7.60;;;6.07;;
12356;SDS011;6243;51.244;6.774;2023-04-15T04:25:02;9.93;;;6.30;;
12356;SDS011;6243;51.244;6.774;2023-04-15T04:27:27;7.93;;;6.00;;
12356;SDS011;6243;51.244;6.774;2023-04-15T04:29:53;7.57;;;6.10;;
12356;SDS011;6243;51.244;6.774;2023-04-15T04:32:18;7.83;;;6.60;;
12356;SDS011;6243;51.244;6.774;2023-04-15T04:34:45;8.97;;;6.03;;
12356;SDS011;6243;51.244;6.774;2023-04-15T04:37:11;9.00;;;6.57;;
12356;SDS011;6243;51.244;6.774;2023-04-15T04:39:36;7.27;;;6.23;;
12356;SDS011;6243;51.244;6.774;2023-04-15T04:42:02;8.00;;;6.43;;
12356;SDS011;6243;51.244;6.774;2023-04-15T04:44:27;9.77;;;6.40;;
12356;SDS011;6243;51.244;6.774;2023-04-15T04:46:53;8.53;;;7.10;;
12356;SDS011;6243;51.244;6.774;2023-04-15T04:49:18;9.07;;;6.93;;
12356;SDS011;6243;51.244;6.774;2023-04-15T04:51:45;9.87;;;6.70;;
12356;SDS011;6243;51.244;6.774;2023-04-15T04:54:11;7.70;;;6.40;;
12356;SDS011;6243;51.244;6.774;2023-04-15T04:56:36;8.20;;;6.97;;
12356;SDS011;6243;51.244;6.774;2023-04-15T04:59:02;7.93;;;6.83;;
12356;SDS011;6243;51.244;6.774;2023-04-15T05:01:27;8.87;;;7.00;;
12356;SDS011;6243;51.244;6.774;2023-04-15T05:03:53;8.30;;;7.00;;
12356;SDS011;6243;51.244;6.774;2023-04-15T05:06:18;8.83;;;6.80;;
12356;SDS011;6243;51.244;6.774;2023-04-15T05:08:45;8.30;;;7.00;;
12356;SDS011;6243;51.244;6.774;2023-04-15T05:11:11;11.07;;;7.33;;
12356;SDS011;6243;51.244;6.774;2023-04-15T05:13:36;9.70;;;7.30;;
12356;SDS011;6243;51.244;6.774;2023-04-15T05:16:02;7.70;;;6.90;;
12356;SDS011;6243;51.244;6.774;2023-04-15T05:18:27;9.83;;;7.07;;
12356;SDS011;6243;51.244;6.774;2023-04-15T05:20:53;8.87;;;7.10;;
12356;SDS011;6243;51.244;6.774;2023-04-15T05:23:19;7.70;;;6.60;;
12356;SDS011;6243;51.244;6.774;2023-04-15T05:25:45;9.10;;;7.23;;
12356;SDS011;6243;51.244;6.774;2023-04-15T05:28:11;9.33;;;7.60;;
12356;SDS011;6243;51.244;6.774;2023-04-15T05:30:36;9.50;;;7.40;;
12356;SDS011;6243;51.244;6.774;2023-04-15T05:33:02;10.90;;;8.33;;
12356;SDS011;6243;51.244;6.774;2023-04-15T05:35:28;11.23;;;8.30;;
12356;SDS011;6243;51.244;6.774;2023-04-15T05:37:53;10.30;;;8.10;;
12356;SDS011;6243;51.244;6.774;2023-04-15T05:40:19;10.07;;;8.07;;
12356;SDS011;6243;51.244;6.774;2023-04-15T05:42:46;10.40;;;8.23;;
12356;SDS011;6243;51.244;6.774;2023-04-15T05:45:11;10.13;;;8.37;;
12356;SDS011;6243;51.244;6.774;2023-04-15T05:47:37;11.30;;;9.00;;
12356;SDS011;6243;51.244;6.774;2023-04-15T05:50:02;10.40;;;8.63;;
12356;SDS011;6243;51.244;6.774;2023-04-15T05:52:28;12.23;;;9.03;;
12356;SDS011;6243;51.244;6.774;2023-04-15T05:54:54;10.17;;;8.43;;
12356;SDS011;6243;51.244;6.774;2023-04-15T05:57:19;11.40;;;9.60;;
12356;SDS011;6243;51.244;6.774;2023-04-15T05:59:46;13.47;;;9.20;;
12356;SDS011;6243;51.244;6.774;2023-04-15T06:02:11;13.00;;;9.80;;
12356;SDS011;6243;51.244;6.774;2023-04-15T06:04:37;11.63;;;9.43;;
12356;SDS011;6243;51.244;6.774;2023-04-15T06:07:03;10.33;;;9.23;;
12356;SDS011;6243;51.244;6.774;2023-04-15T06:09:28;11.23;;;9.97;;
12356;SDS011;6243;51.244;6.774;2023-04-15T06:11:54;14.93;;;11.50;;
12356;SDS011;6243;51.244;6.774;2023-04-15T06:14:19;11.60;;;10.13;;
12356;SDS011;6243;51.244;6.774;2023-04-15T06:16:46;11.60;;;9.83;;
12356;SDS011;6243;51.244;6.774;2023-04-15T06:19:12;10.97;;;9.87;;
12356;SDS011;6243;51.244;6.774;2023-04-15T06:21:37;13.37;;;10.60;;
12356;SDS011;6243;51.244;6.774;2023-04-15T06:24:03;11.30;;;9.97;;
12356;SDS011;6243;51.244;6.774;2023-04-15T06:26:29;11.63;;;10.43;;
12356;SDS011;6243;51.244;6.774;2023-04-15T06:28:54;11.50;;;10.30;;
12356;SDS011;6243;51.244;6.774;2023-04-15T06:31:19;12.27;;;9.80;;
12356;SDS011;6243;51.244;6.774;2023-04-15T06:33:46;10.70;;;9.57;;
12356;SDS011;6243;51.244;6.774;2023-04-15T06:36:12;12.63;;;9.90;;
12356;SDS011;6243;51.244;6.774;2023-04-15T06:38:38;11.77;;;10.20;;
12356;SDS011;6243;51.244;6.774;2023-04-15T06:41:03;10.63;;;9.53;;
12356;SDS011;6243;51.244;6.774;2023-04-15T06:43:29;10.90;;;8.87;;
12356;SDS011;6243;51.244;6.774;2023-04-15T06:45:54;9.53;;;8.43;;
12356;SDS011;6243;51.244;6.774;2023-04-15T06:48:20;10.53;;;9.00;;
12356;SDS011;6243;51.244;6.774;2023-04-15T06:50:47;9.87;;;8.83;;
12356;SDS011;6243;51.244;6.774;2023-04-15T06:53:13;9.70;;;8.47;;
12356;SDS011;6243;51.244;6.774;2023-04-15T06:55:38;9.97;;;8.77;;
12356;SDS011;6243;51.244;6.774;2023-04-15T06:58:04;9.53;;;8.63;;
12356;SDS011;6243;51.244;6.774;2023-04-15T07:00:29;10.30;;;8.27;;
12356;SDS011;6243;51.244;6.774;2023-04-15T07:02:55;10.53;;;9.37;;
12356;SDS011;6243;51.244;6.774;2023-04-15T07:05:20;9.63;;;8.70;;
12356;SDS011;6243;51.244;6.774;2023-04-15T07:07:47;10.80;;;8.93;;
12356;SDS011;6243;51.244;6.774;2023-04-15T07:10:13;10.13;;;9.07;;
12356;SDS011;6243;51.244;6.774;2023-04-15T07:12:38;12.37;;;9.50;;
12356;SDS011;6243;51.244;6.774;2023-04-15T07:15:04;10.10;;;9.03;;
12356;SDS011;6243;51.244;6.774;2023-04-15T07:17:30;9.93;;;8.93;;
12356;SDS011;6243;51.244;6.774;2023-04-15T07:19:56;9.77;;;8.57;;
12356;SDS011;6243;51.244;6.774;2023-04-15T07:22:21;10.80;;;8.70;;
12356;SDS011;6243;51.244;6.774;2023-04-15T07:24:48;9.80;;;8.80;;
12356;SDS011;6243;51.244;6.774;2023-04-15T07:27:14;11.07;;;9.00;;
12356;SDS011;6243;51.244;6.774;2023-04-15T07:29:39;9.47;;;8.23;;
12356;SDS011;6243;51.244;6.774;2023-04-15T07:32:05;10.40;;;8.27;;
12356;SDS011;6243;51.244;6.774;2023-04-15T07:34:30;9.27;;;7.80;;
12356;SDS011;6243;51.244;6.774;2023-04-15T07:36:56;10.33;;;8.30;;
12356;SDS011;6243;51.244;6.774;2023-04-15T07:39:21;10.60;;;7.83;;
12356;SDS011;6243;51.244;6.774;2023-04-15T07:41:48;9.03;;;7.87;;
12356;SDS011;6243;51.244;6.774;2023-04-15T07:44:14;9.80;;;7.87;;
12356;SDS011;6243;51.244;6.774;2023-04-15T07:46:39;9.97;;;8.33;;
12356;SDS011;6243;51.244;6.774;2023-04-15T07:49:05;8.27;;;7.30;;
12356;SDS011;6243;51.244;6.774;2023-04-15T07:51:30;10.33;;;8.57;;
12356;SDS011;6243;51.244;6.774;2023-04-15T07:53:56;9.13;;;8.10;;
12356;SDS011;6243;51.244;6.774;2023-04-15T07:56:21;8.63;;;6.77;;
12356;SDS011;6243;51.244;6.774;2023-04-15T07:58:48;7.50;;;6.10;;
12356;SDS011;6243;51.244;6.774;2023-04-15T08:01:14;6.83;;;5.77;;
12356;SDS011;6243;51.244;6.774;2023-04-15T08:03:39;9.13;;;5.60;;
12356;SDS011;6243;51.244;6.774;2023-04-15T08:06:05;5.50;;;4.87;;
12356;SDS011;6243;51.244;6.774;2023-04-15T08:08:30;7.60;;;6.03;;
12356;SDS011;6243;51.244;6.774;2023-04-15T08:10:56;6.83;;;6.07;;
12356;SDS011;6243;51.244;6.774;2023-04-15T08:13:22;6.23;;;5.63;;
12356;SDS011;6243;51.244;6.774;2023-04-15T08:15:52;3.73;;;3.43;;
12356;SDS011;6243;51.244;6.774;2023-04-15T08:18:37;3.73;;;3.27;;
12356;SDS011;6243;51.244;6.774;2023-04-15T08:21:02;4.70;;;4.20;;
12356;SDS011;6243;51.244;6.774;2023-04-15T08:23:28;4.63;;;3.80;;
12356;SDS011;6243;51.244;6.774;2023-04-15T08:25:53;5.73;;;4.47;;
12356;SDS011;6243;51.244;6.774;2023-04-15T08:28:19;4.77;;;4.17;;
12356;SDS011;6243;51.244;6.774;2023-04-15T08:30:44;4.30;;;3.90;;
12356;SDS011;6243;51.244;6.774;2023-04-15T08:33:11;4.90;;;4.10;;
12356;SDS011;6243;51.244;6.774;2023-04-15T08:35:37;4.40;;;3.97;;
12356;SDS011;6243;51.244;6.774;2023-04-15T08:38:02;6.60;;;4.67;;
12356;SDS011;6243;51.244;6.774;2023-04-15T08:40:29;5.50;;;4.40;;
12356;SDS011;6243;51.244;6.774;2023-04-15T08:43:04;4.80;;;4.30;;
12356;SDS011;6243;51.244;6.774;2023-04-15T08:45:32;5.47;;;4.43;;
12356;SDS011;6243;51.244;6.774;2023-04-15T08:47:58;5.73;;;4.87;;
12356;SDS011;6243;51.244;6.774;2023-04-15T08:50:27;7.30;;;5.23;;
12356;SDS011;6243;51.244;6.774;2023-04-15T08:52:55;5.13;;;4.63;;
12356;SDS011;6243;51.244;6.774;2023-04-15T08:55:23;5.20;;;4.60;;
12356;SDS011;6243;51.244;6.774;2023-04-15T08:57:53;5.30;;;4.30;;
12356;SDS011;6243;51.244;6.774;2023-04-15T09:00:20;5.93;;;5.33;;
12356;SDS011;6243;51.244;6.774;2023-04-15T09:02:46;5.53;;;4.83;;
12356;SDS011;6243;51.244;6.774;2023-04-15T09:05:11;6.00;;;4.60;;
12356;SDS011;6243;51.244;6.774;2023-04-15T09:07:38;4.87;;;4.47;;
12356;SDS011;6243;51.244;6.774;2023-04-15T09:10:04;4.77;;;4.37;;
12356;SDS011;6243;51.244;6.774;2023-04-15T09:12:30;5.30;;;4.10;;
12356;SDS011;6243;51.244;6.774;2023-04-15T09:14:58;3.50;;;3.20;;
12356;SDS011;6243;51.244;6.774;2023-04-15T09:17:25;2.87;;;2.67;;
12356;SDS011;6243;51.244;6.774;2023-04-15T09:19:54;2.60;;;2.40;;
12356;SDS011;6243;51.244;6.774;2023-04-15T09:22:32;2.53;;;2.33;;
12356;SDS011;6243;51.244;6.774;2023-04-15T09:24:59;3.70;;;2.70;;
12356;SDS011;6243;51.244;6.774;2023-04-15T09:27:24;2.60;;;2.40;;
12356;SDS011;6243;51.244;6.774;2023-04-15T09:29:50;2.90;;;2.60;;
12356;SDS011;6243;51.244;6.774;2023-04-15T09:32:17;2.57;;;2.37;;
12356;SDS011;6243;51.244;6.774;2023-04-15T09:34:43;3.13;;;2.17;;
12356;SDS011;6243;51.244;6.774;2023-04-15T09:37:08;3.30;;;3.00;;
12356;SDS011;6243;51.244;6.774;2023-04-15T09:39:46;4.00;;;3.10;;
12356;SDS011;6243;51.244;6.774;2023-04-15T09:42:14;4.73;;;2.97;;
12356;SDS011;6243;51.244;6.774;2023-04-15T09:44:40;3.20;;;2.83;;
12356;SDS011;6243;51.244;6.774;2023-04-15T09:47:06;8.07;;;2.90;;
12356;SDS011;6243;51.244;6.774;2023-04-15T09:49:31;4.87;;;3.27;;
12356;SDS011;6243;51.244;6.774;2023-04-15T09:51:57;4.43;;;2.97;;
12356;SDS011;6243;51.244;6.774;2023-04-15T09:54:24;3.23;;;2.70;;
12356;SDS011;6243;51.244;6.774;2023-04-15T09:57:03;3.33;;;2.93;;
12356;SDS011;6243;51.244;6.774;2023-04-15T09:59:30;6.90;;;2.80;;
12356;SDS011;6243;51.244;6.774;2023-04-15T10:01:56;2.93;;;2.50;;
12356;SDS011;6243;51.244;6.774;2023-04-15T10:04:22;4.03;;;2.93;;
12356;SDS011;6243;51.244;6.774;2023-04-15T10:06:49;2.90;;;2.50;;
12356;SDS011;6243;51.244;6.774;2023-04-15T10:09:15;4.57;;;2.93;;
12356;SDS011;6243;51.244;6.774;2023-04-15T10:11:41;2.80;;;2.50;;
12356;SDS011;6243;51.244;6.774;2023-04-15T10:14:07;2.57;;;2.37;;
12356;SDS011;6243;51.244;6.774;2023-04-15T10:16:35;3.23;;;2.93;;
12356;SDS011;6243;51.244;6.774;2023-04-15T10:19:05;2.87;;;2.67;;
12356;SDS011;6243;51.244;6.774;2023-04-15T10:21:32;3.37;;;3.00;;
12356;SDS011;6243;51.244;6.774;2023-04-15T10:23:58;3.00;;;2.80;;
12356;SDS011;6243;51.244;6.774;2023-04-15T10:26:26;3.37;;;2.80;;
12356;SDS011;6243;51.244;6.774;2023-04-15T10:28:52;3.40;;;3.10;;
12356;SDS011;6243;51.244;6.774;2023-04-15T10:31:18;2.97;;;2.77;;
12356;SDS011;6243;51.244;6.774;2023-04-15T10:33:45;3.20;;;2.90;;
12356;SDS011;6243;51.244;6.774;2023-04-15T10:36:12;3.10;;;2.90;;
12356;SDS011;6243;51.244;6.774;2023-04-15T10:38:38;2.80;;;2.60;;
12356;SDS011;6243;51.244;6.774;2023-04-15T10:41:11;3.30;;;3.00;;
12356;SDS011;6243;51.244;6.774;2023-04-15T10:43:38;3.37;;;3.07;;
12356;SDS011;6243;51.244;6.774;2023-04-15T10:46:04;2.60;;;2.40;;
12356;SDS011;6243;51.244;6.774;2023-04-15T10:48:30;3.03;;;2.83;;
12356;SDS011;6243;51.244;6.774;2023-04-15T10:50:57;2.77;;;2.57;;
12356;SDS011;6243;51.244;6.774;2023-04-15T10:53:25;3.00;;;2.80;;
12356;SDS011;6243;51.244;6.774;2023-04-15T10:55:52;3.97;;;3.27;;
12356;SDS011;6243;51.244;6.774;2023-04-15T10:58:17;3.23;;;2.93;;
12356;SDS011;6243;51.244;6.774;2023-04-15T11:00:43;2.93;;;2.70;;
12356;SDS011;6243;51.244;6.774;2023-04-15T11:03:14;2.97;;;2.77;;
12356;SDS011;6243;51.244;6.774;2023-04-15T11:05:49;3.67;;;3.37;;
12356;SDS011;6243;51.244;6.774;2023-04-15T11:08:17;3.40;;;3.00;;
12356;SDS011;6243;51.244;6.774;2023-04-15T11:10:52;3.23;;;2.93;;
12356;SDS011;6243;51.244;6.774;2023-04-15T11:13:19;3.33;;;3.03;;
12356;SDS011;6243;51.244;6.774;2023-04-15T11:15:49;3.60;;;3.30;;
12356;SDS011;6243;51.244;6.774;2023-04-15T11:18:15;3.53;;;3.23;;
12356;SDS011;6243;51.244;6.774;2023-04-15T11:20:41;4.90;;;4.40;;
12356;SDS011;6243;51.244;6.774;2023-04-15T11:23:08;6.17;;;5.67;;
12356;SDS011;6243;51.244;6.774;2023-04-15T11:25:35;6.33;;;5.63;;
12356;SDS011;6243;51.244;6.774;2023-04-15T11:28:01;5.50;;;5.10;;
12356;SDS011;6243;51.244;6.774;2023-04-15T11:30:28;6.77;;;6.07;;
12356;SDS011;6243;51.244;6.774;2023-04-15T11:32:56;6.93;;;6.33;;
12356;SDS011;6243;51.244;6.774;2023-04-15T11:35:24;6.90;;;6.20;;
12356;SDS011;6243;51.244;6.774;2023-04-15T11:37:49;7.63;;;5.33;;
12356;SDS011;6243;51.244;6.774;2023-04-15T11:40:15;6.90;;;6.07;;
12356;SDS011;6243;51.244;6.774;2023-04-15T11:42:49;6.10;;;5.50;;
12356;SDS011;6243;51.244;6.774;2023-04-15T11:45:28;5.57;;;5.10;;
12356;SDS011;6243;51.244;6.774;2023-04-15T11:47:53;3.70;;;3.40;;
12356;SDS011;6243;51.244;6.774;2023-04-15T11:50:19;4.17;;;3.77;;
12356;SDS011;6243;51.244;6.774;2023-04-15T11:52:52;4.83;;;4.17;;
12356;SDS011;6243;51.244;6.774;2023-04-15T11:55:18;5.03;;;4.50;;
12356;SDS011;6243;51.244;6.774;2023-04-15T11:57:44;5.03;;;4.50;;
12356;SDS011;6243;51.244;6.774;2023-04-15T12:00:11;5.07;;;4.60;;
12356;SDS011;6243;51.244;6.774;2023-04-15T12:02:37;5.13;;;4.67;;
12356;SDS011;6243;51.244;6.774;2023-04-15T12:05:03;4.63;;;4.23;;
12356;SDS011;6243;51.244;6.774;2023-04-15T12:07:29;4.57;;;3.90;;
12356;SDS011;6243;51.244;6.774;2023-04-15T12:09:54;6.23;;;4.33;;
12356;SDS011;6243;51.244;6.774;2023-04-15T12:12:20;3.80;;;3.50;;
12356;SDS011;6243;51.244;6.774;2023-04-15T12:14:46;4.43;;;4.03;;
12356;SDS011;6243;51.244;6.774;2023-04-15T12:17:13;3.83;;;3.50;;
12356;SDS011;6243;51.244;6.774;2023-04-15T12:19:39;3.93;;;3.10;;
12356;SDS011;6243;51.244;6.774;2023-04-15T12:22:05;3.47;;;3.17;;
12356;SDS011;6243;51.244;6.774;2023-04-15T12:24:34;3.80;;;3.17;;
12356;SDS011;6243;51.244;6.774;2023-04-15T12:27:01;3.90;;;3.50;;
12356;SDS011;6243;51.244;6.774;2023-04-15T12:29:29;4.17;;;3.77;;
12356;SDS011;6243;51.244;6.774;2023-04-15T12:31:55;4.03;;;3.43;;
12356;SDS011;6243;51.244;6.774;2023-04-15T12:34:26;4.90;;;3.70;;
12356;SDS011;6243;51.244;6.774;2023-04-15T12:36:53;5.67;;;3.47;;
12356;SDS011;6243;51.244;6.774;2023-04-15T12:39:20;3.60;;;3.30;;
12356;SDS011;6243;51.244;6.774;2023-04-15T12:41:46;4.10;;;3.50;;
12356;SDS011;6243;51.244;6.774;2023-04-15T12:44:12;3.47;;;3.00;;
12356;SDS011;6243;51.244;6.774;2023-04-15T12:46:37;5.23;;;3.53;;
12356;SDS011;6243;51.244;6.774;2023-04-15T12:49:03;3.80;;;3.40;;
12356;SDS011;6243;51.244;6.774;2023-04-15T12:51:30;4.90;;;3.70;;
12356;SDS011;6243;51.244;6.774;2023-04-15T12:53:55;3.50;;;3.20;;
12356;SDS011;6243;51.244;6.774;2023-04-15T12:56:21;5.40;;;3.60;;
12356;SDS011;6243;51.244;6.774;2023-04-15T12:58:46;4.57;;;3.57;;
12356;SDS011;6243;51.244;6.774;2023-04-15T13:01:12;6.37;;;4.17;;
12356;SDS011;6243;51.244;6.774;2023-04-15T13:03:37;5.30;;;3.40;;
12356;SDS011;6243;51.244;6.774;2023-04-15T13:06:04;4.77;;;2.90;;
12356;SDS011;6243;51.244;6.774;2023-04-15T13:08:31;5.00;;;3.53;;
12356;SDS011;6243;51.244;6.774;2023-04-15T13:10:57;7.37;;;3.57;;
12356;SDS011;6243;51.244;6.774;2023-04-15T13:13:22;4.63;;;3.23;;
12356;SDS011;6243;51.244;6.774;2023-04-15T13:15:48;3.47;;;3.17;;
12356;SDS011;6243;51.244;6.774;2023-04-15T13:18:13;3.60;;;3.20;;
12356;SDS011;6243;51.244;6.774;2023-04-15T13:20:38;3.67;;;2.90;;
12356;SDS011;6243;51.244;6.774;2023-04-15T13:23:04;3.67;;;3.37;;
12356;SDS011;6243;51.244;6.774;2023-04-15T13:25:31;3.50;;;3.07;;
12356;SDS011;6243;51.244;6.774;2023-04-15T13:27:56;3.87;;;3.50;;
12356;SDS011;6243;51.244;6.774;2023-04-15T13:30:22;3.50;;;3.20;;
12356;SDS011;6243;51.244;6.774;2023-04-15T13:32:47;3.87;;;3.57;;
12356;SDS011;6243;51.244;6.774;2023-04-15T13:35:13;5.33;;;4.20;;
12356;SDS011;6243;51.244;6.774;2023-04-15T13:37:38;4.33;;;3.73;;
12356;SDS011;6243;51.244;6.774;2023-04-15T13:40:05;4.23;;;3.70;;
12356;SDS011;6243;51.244;6.774;2023-04-15T13:44:59;4.57;;;3.50;;
12356;SDS011;6243;51.244;6.774;2023-04-15T13:47:24;12.63;;;5.93;;
12356;SDS011;6243;51.244;6.774;2023-04-15T13:49:50;3.73;;;3.30;;
12356;SDS011;6243;51.244;6.774;2023-04-15T13:52:15;5.87;;;3.80;;
12356;SDS011;6243;51.244;6.774;2023-04-15T13:54:41;4.17;;;3.13;;
12356;SDS011;6243;51.244;6.774;2023-04-15T13:57:06;4.10;;;3.70;;
12356;SDS011;6243;51.244;6.774;2023-04-15T13:59:33;6.20;;;3.90;;
12356;SDS011;6243;51.244;6.774;2023-04-15T14:01:59;2.93;;;2.40;;
12356;SDS011;6243;51.244;6.774;2023-04-15T14:04:24;4.67;;;3.07;;
12356;SDS011;6243;51.244;6.774;2023-04-15T14:06:50;5.03;;;2.47;;
12356;SDS011;6243;51.244;6.774;2023-04-15T14:09:15;5.10;;;3.13;;
12356;SDS011;6243;51.244;6.774;2023-04-15T14:11:41;3.03;;;2.73;;
12356;SDS011;6243;51.244;6.774;2023-04-15T14:14:06;4.17;;;2.83;;
12356;SDS011;6243;51.244;6.774;2023-04-15T14:16:33;4.57;;;3.00;;
12356;SDS011;6243;51.244;6.774;2023-04-15T14:18:59;4.17;;;2.33;;
12356;SDS011;6243;51.244;6.774;2023-04-15T14:21:25;3.37;;;2.60;;
12356;SDS011;6243;51.244;6.774;2023-04-15T14:23:51;3.17;;;2.37;;
12356;SDS011;6243;51.244;6.774;2023-04-15T14:26:16;3.63;;;2.57;;
12356;SDS011;6243;51.244;6.774;2023-04-15T14:28:42;3.50;;;2.33;;
12356;SDS011;6243;51.244;6.774;2023-04-15T14:31:08;3.30;;;2.93;;
12356;SDS011;6243;51.244;6.774;2023-04-15T14:33:35;3.07;;;2.50;;
12356;SDS011;6243;51.244;6.774;2023-04-15T14:36:00;2.80;;;2.60;;
12356;SDS011;6243;51.244;6.774;2023-04-15T14:38:26;2.70;;;2.50;;
12356;SDS011;6243;51.244;6.774;2023-04-15T14:40:51;3.17;;;2.87;;
12356;SDS011;6243;51.244;6.774;2023-04-15T14:43:17;2.87;;;2.60;;
12356;SDS011;6243;51.244;6.774;2023-04-15T14:45:42;2.73;;;2.50;;
12356;SDS011;6243;51.244;6.774;2023-04-15T14:48:08;4.67;;;2.60;;
12356;SDS011;6243;51.244;6.774;2023-04-15T14:50:35;2.40;;;2.20;;
12356;SDS011;6243;51.244;6.774;2023-04-15T14:53:00;3.27;;;2.30;;
12356;SDS011;6243;51.244;6.774;2023-04-15T14:55:26;2.57;;;2.27;;